sensor_id;sensor_type;location;lat;lon;timestamp;temperature;humidity
1570;DHT22;778;50.120;8.698;2022-08-02T00:01:01;22.10;99.90
1570;DHT22;778;50.120;8.698;2022-08-02T00:03:30;22.10;99.90
1570;DHT22;778;50.120;8.698;2022-08-02T00:05:59;22.10;99.90
1570;DHT22;778;50.120;8.698;2022-08-02T00:08:28;22.10;99.90
1570;DHT22;778;50.120;8.698;2022-08-02T00:10:57;22.10;99.90
1570;DHT22;778;50.120;8.698;2022-08-02T00:13:25;22.10;99.90
1570;DHT22;778;50.120;8.698;2022-08-02T00:15:54;22.10;99.90
1570;DHT22;778;50.120;8.698;2022-08-02T00:18:23;22.00;99.90
1570;DHT22;778;50.120;8.698;2022-08-02T00:20:51;21.90;99.90
1570;DHT22;778;50.120;8.698;2022-08-02T00:23:20;21.90;99.90
1570;DHT22;778;50.120;8.698;2022-08-02T00:25:50;21.80;99.90
1570;DHT22;778;50.120;8.698;2022-08-02T00:28:22;21.80;99.90
1570;DHT22;778;50.120;8.698;2022-08-02T00:30:55;21.70;99.90
1570;DHT22;778;50.120;8.698;2022-08-02T00:33:24;21.70;99.90
1570;DHT22;778;50.120;8.698;2022-08-02T00:36:13;21.70;99.90
1570;DHT22;778;50.120;8.698;2022-08-02T00:38:42;21.60;99.90
1570;DHT22;778;50.120;8.698;2022-08-02T00:41:15;21.50;99.90
1570;DHT22;778;50.120;8.698;2022-08-02T00:43:46;21.60;99.90
1570;DHT22;778;50.120;8.698;2022-08-02T00:46:17;21.60;99.90
1570;DHT22;778;50.120;8.698;2022-08-02T00:48:46;21.50;99.90
1570;DHT22;778;50.120;8.698;2022-08-02T00:51:16;21.60;99.90
1570;DHT22;778;50.120;8.698;2022-08-02T00:53:44;21.50;99.90
1570;DHT22;778;50.120;8.698;2022-08-02T00:56:14;21.60;99.90
1570;DHT22;778;50.120;8.698;2022-08-02T00:58:43;21.60;99.90
1570;DHT22;778;50.120;8.698;2022-08-02T01:01:11;21.70;99.90
1570;DHT22;778;50.120;8.698;2022-08-02T01:03:40;21.70;99.90
1570;DHT22;778;50.120;8.698;2022-08-02T01:06:08;21.70;99.90
1570;DHT22;778;50.120;8.698;2022-08-02T01:08:37;21.60;99.90
1570;DHT22;778;50.120;8.698;2022-08-02T01:11:06;21.60;99.90
1570;DHT22;778;50.120;8.698;2022-08-02T01:13:36;21.60;99.90
1570;DHT22;778;50.120;8.698;2022-08-02T01:16:13;21.60;99.90
1570;DHT22;778;50.120;8.698;2022-08-02T01:18:46;21.60;99.90
1570;DHT22;778;50.120;8.698;2022-08-02T01:21:37;21.60;99.90
1570;DHT22;778;50.120;8.698;2022-08-02T01:24:23;21.60;99.90
1570;DHT22;778;50.120;8.698;2022-08-02T01:27:10;21.60;99.90
1570;DHT22;778;50.120;8.698;2022-08-02T01:29:53;21.50;99.90
1570;DHT22;778;50.120;8.698;2022-08-02T01:32:27;21.60;99.90
1570;DHT22;778;50.120;8.698;2022-08-02T01:35:00;21.50;99.90
1570;DHT22;778;50.120;8.698;2022-08-02T01:37:37;21.30;99.90
1570;DHT22;778;50.120;8.698;2022-08-02T01:40:22;21.30;99.90
1570;DHT22;778;50.120;8.698;2022-08-02T01:42:55;21.40;99.90
1570;DHT22;778;50.120;8.698;2022-08-02T01:45:29;21.40;99.90
1570;DHT22;778;50.120;8.698;2022-08-02T01:48:00;21.40;99.90
1570;DHT22;778;50.120;8.698;2022-08-02T01:50:33;21.40;99.90
1570;DHT22;778;50.120;8.698;2022-08-02T01:53:07;21.40;99.90
1570;DHT22;778;50.120;8.698;2022-08-02T01:55:39;21.40;99.90
1570;DHT22;778;50.120;8.698;2022-08-02T01:58:27;21.40;99.90
1570;DHT22;778;50.120;8.698;2022-08-02T02:01:00;21.30;99.90
1570;DHT22;778;50.120;8.698;2022-08-02T02:03:31;21.30;99.90
1570;DHT22;778;50.120;8.698;2022-08-02T02:06:01;21.30;99.90
1570;DHT22;778;50.120;8.698;2022-08-02T02:08:36;21.30;99.90
1570;DHT22;778;50.120;8.698;2022-08-02T02:11:06;21.20;99.90
1570;DHT22;778;50.120;8.698;2022-08-02T02:13:57;21.30;99.90
1570;DHT22;778;50.120;8.698;2022-08-02T02:16:28;21.30;99.90
1570;DHT22;778;50.120;8.698;2022-08-02T02:18:59;21.20;99.90
1570;DHT22;778;50.120;8.698;2022-08-02T02:21:29;21.20;99.90
1570;DHT22;778;50.120;8.698;2022-08-02T02:24:01;21.20;99.90
1570;DHT22;778;50.120;8.698;2022-08-02T02:26:34;21.20;99.90
1570;DHT22;778;50.120;8.698;2022-08-02T02:29:08;21.20;99.90
1570;DHT22;778;50.120;8.698;2022-08-02T02:31:43;21.20;99.90
1570;DHT22;778;50.120;8.698;2022-08-02T02:34:15;21.30;99.90
1570;DHT22;778;50.120;8.698;2022-08-02T02:36:47;21.20;99.90
1570;DHT22;778;50.120;8.698;2022-08-02T02:39:20;21.20;99.90
1570;DHT22;778;50.120;8.698;2022-08-02T02:41:50;21.20;99.90
1570;DHT22;778;50.120;8.698;2022-08-02T02:44:20;21.20;99.90
1570;DHT22;778;50.120;8.698;2022-08-02T02:46:52;21.20;99.90
1570;DHT22;778;50.120;8.698;2022-08-02T02:49:22;21.10;99.90
1570;DHT22;778;50.120;8.698;2022-08-02T02:51:52;21.10;99.90
1570;DHT22;778;50.120;8.698;2022-08-02T02:54:22;21.00;99.90
1570;DHT22;778;50.120;8.698;2022-08-02T02:57:02;21.10;99.90
1570;DHT22;778;50.120;8.698;2022-08-02T02:59:33;21.10;99.90
1570;DHT22;778;50.120;8.698;2022-08-02T03:02:10;21.00;99.90
1570;DHT22;778;50.120;8.698;2022-08-02T03:04:41;21.00;99.90
1570;DHT22;778;50.120;8.698;2022-08-02T03:07:24;20.90;99.90
1570;DHT22;778;50.120;8.698;2022-08-02T03:09:53;20.80;99.90
1570;DHT22;778;50.120;8.698;2022-08-02T03:12:22;20.90;99.90
1570;DHT22;778;50.120;8.698;2022-08-02T03:14:58;20.90;99.90
1570;DHT22;778;50.120;8.698;2022-08-02T03:17:41;20.90;99.90
1570;DHT22;778;50.120;8.698;2022-08-02T03:20:13;20.80;99.90
1570;DHT22;778;50.120;8.698;2022-08-02T03:22:43;20.70;99.90
1570;DHT22;778;50.120;8.698;2022-08-02T03:25:13;20.60;99.90
1570;DHT22;778;50.120;8.698;2022-08-02T03:27:42;20.60;99.90
1570;DHT22;778;50.120;8.698;2022-08-02T03:30:12;20.50;99.90
1570;DHT22;778;50.120;8.698;2022-08-02T03:32:44;20.50;99.90
1570;DHT22;778;50.120;8.698;2022-08-02T03:35:16;20.60;99.90
1570;DHT22;778;50.120;8.698;2022-08-02T03:37:51;20.70;99.90
1570;DHT22;778;50.120;8.698;2022-08-02T03:40:22;20.80;99.90
1570;DHT22;778;50.120;8.698;2022-08-02T03:42:51;20.80;99.90
1570;DHT22;778;50.120;8.698;2022-08-02T03:45:20;20.70;99.90
1570;DHT22;778;50.120;8.698;2022-08-02T03:47:50;20.70;99.90
1570;DHT22;778;50.120;8.698;2022-08-02T03:50:25;20.70;99.90
1570;DHT22;778;50.120;8.698;2022-08-02T03:52:54;20.70;99.90
1570;DHT22;778;50.120;8.698;2022-08-02T03:55:24;20.80;99.90
1570;DHT22;778;50.120;8.698;2022-08-02T03:57:52;20.70;99.90
1570;DHT22;778;50.120;8.698;2022-08-02T04:00:21;20.60;99.90
1570;DHT22;778;50.120;8.698;2022-08-02T04:02:52;20.60;99.90
1570;DHT22;778;50.120;8.698;2022-08-02T04:05:20;20.60;99.90
1570;DHT22;778;50.120;8.698;2022-08-02T04:07:49;20.70;99.90
1570;DHT22;778;50.120;8.698;2022-08-02T04:10:38;20.80;99.90
1570;DHT22;778;50.120;8.698;2022-08-02T04:13:27;20.70;99.90
1570;DHT22;778;50.120;8.698;2022-08-02T04:16:07;20.60;99.90
1570;DHT22;778;50.120;8.698;2022-08-02T04:18:44;20.60;99.90
1570;DHT22;778;50.120;8.698;2022-08-02T04:21:16;20.50;99.90
1570;DHT22;778;50.120;8.698;2022-08-02T04:23:46;20.50;99.90
1570;DHT22;778;50.120;8.698;2022-08-02T04:26:16;20.40;99.90
1570;DHT22;778;50.120;8.698;2022-08-02T04:28:53;20.40;99.90
1570;DHT22;778;50.120;8.698;2022-08-02T04:31:22;20.30;99.90
1570;DHT22;778;50.120;8.698;2022-08-02T04:33:53;20.20;99.90
1570;DHT22;778;50.120;8.698;2022-08-02T04:36:22;20.20;99.90
1570;DHT22;778;50.120;8.698;2022-08-02T04:38:57;20.10;99.90
1570;DHT22;778;50.120;8.698;2022-08-02T04:41:39;20.20;99.90
1570;DHT22;778;50.120;8.698;2022-08-02T04:44:10;20.10;99.90
1570;DHT22;778;50.120;8.698;2022-08-02T04:46:39;20.10;99.90
1570;DHT22;778;50.120;8.698;2022-08-02T04:49:11;20.10;99.90
1570;DHT22;778;50.120;8.698;2022-08-02T04:51:41;20.20;99.90
1570;DHT22;778;50.120;8.698;2022-08-02T04:54:11;20.00;99.90
1570;DHT22;778;50.120;8.698;2022-08-02T04:56:39;20.10;99.90
1570;DHT22;778;50.120;8.698;2022-08-02T04:59:08;20.40;99.90
1570;DHT22;778;50.120;8.698;2022-08-02T05:01:38;21.00;99.90
1570;DHT22;778;50.120;8.698;2022-08-02T05:04:09;21.30;99.90
1570;DHT22;778;50.120;8.698;2022-08-02T05:06:38;21.50;99.90
1570;DHT22;778;50.120;8.698;2022-08-02T05:09:06;21.80;99.90
1570;DHT22;778;50.120;8.698;2022-08-02T05:11:35;22.00;99.90
1570;DHT22;778;50.120;8.698;2022-08-02T05:14:04;22.20;99.90
1570;DHT22;778;50.120;8.698;2022-08-02T05:16:32;22.40;99.90
1570;DHT22;778;50.120;8.698;2022-08-02T05:19:01;22.10;99.90
1570;DHT22;778;50.120;8.698;2022-08-02T05:21:31;21.90;99.90
1570;DHT22;778;50.120;8.698;2022-08-02T05:23:59;21.60;99.90
1570;DHT22;778;50.120;8.698;2022-08-02T05:26:28;21.50;99.90
1570;DHT22;778;50.120;8.698;2022-08-02T05:28:56;21.60;99.90
1570;DHT22;778;50.120;8.698;2022-08-02T05:31:25;21.40;99.90
1570;DHT22;778;50.120;8.698;2022-08-02T05:33:53;21.40;99.90
1570;DHT22;778;50.120;8.698;2022-08-02T05:36:22;21.50;99.90
1570;DHT22;778;50.120;8.698;2022-08-02T05:38:52;21.80;99.90
1570;DHT22;778;50.120;8.698;2022-08-02T05:41:31;22.00;99.90
1570;DHT22;778;50.120;8.698;2022-08-02T05:43:59;22.20;99.90
1570;DHT22;778;50.120;8.698;2022-08-02T05:46:28;22.30;99.90
1570;DHT22;778;50.120;8.698;2022-08-02T05:48:57;22.40;99.90
1570;DHT22;778;50.120;8.698;2022-08-02T05:51:29;22.40;99.90
1570;DHT22;778;50.120;8.698;2022-08-02T05:54:11;22.30;99.90
1570;DHT22;778;50.120;8.698;2022-08-02T05:56:48;22.60;99.90
1570;DHT22;778;50.120;8.698;2022-08-02T05:59:25;22.80;99.90
1570;DHT22;778;50.120;8.698;2022-08-02T06:02:01;23.00;99.90
1570;DHT22;778;50.120;8.698;2022-08-02T06:04:35;23.00;99.90
1570;DHT22;778;50.120;8.698;2022-08-02T06:07:16;23.00;99.90
1570;DHT22;778;50.120;8.698;2022-08-02T06:09:48;23.40;99.90
1570;DHT22;778;50.120;8.698;2022-08-02T06:12:18;23.40;99.90
1570;DHT22;778;50.120;8.698;2022-08-02T06:14:48;23.20;99.90
1570;DHT22;778;50.120;8.698;2022-08-02T06:17:20;23.70;99.90
1570;DHT22;778;50.120;8.698;2022-08-02T06:19:50;23.80;99.90
1570;DHT22;778;50.120;8.698;2022-08-02T06:22:25;24.10;99.90
1570;DHT22;778;50.120;8.698;2022-08-02T06:25:05;24.50;99.90
1570;DHT22;778;50.120;8.698;2022-08-02T06:27:55;24.80;99.90
1570;DHT22;778;50.120;8.698;2022-08-02T06:30:24;25.10;99.90
1570;DHT22;778;50.120;8.698;2022-08-02T06:32:53;25.50;99.90
1570;DHT22;778;50.120;8.698;2022-08-02T06:35:24;25.50;99.90
1570;DHT22;778;50.120;8.698;2022-08-02T06:38:13;25.50;99.90
1570;DHT22;778;50.120;8.698;2022-08-02T06:40:50;25.50;99.90
1570;DHT22;778;50.120;8.698;2022-08-02T06:43:30;25.10;99.90
1570;DHT22;778;50.120;8.698;2022-08-02T06:46:05;24.80;99.90
1570;DHT22;778;50.120;8.698;2022-08-02T06:48:54;24.60;99.90
1570;DHT22;778;50.120;8.698;2022-08-02T06:51:23;25.00;99.90
1570;DHT22;778;50.120;8.698;2022-08-02T06:53:52;25.30;99.90
1570;DHT22;778;50.120;8.698;2022-08-02T06:56:22;25.80;99.90
1570;DHT22;778;50.120;8.698;2022-08-02T06:58:50;25.80;99.90
1570;DHT22;778;50.120;8.698;2022-08-02T07:01:19;25.80;99.90
1570;DHT22;778;50.120;8.698;2022-08-02T07:03:48;25.40;99.90
1570;DHT22;778;50.120;8.698;2022-08-02T07:06:16;25.80;99.90
1570;DHT22;778;50.120;8.698;2022-08-02T07:08:46;26.20;99.90
1570;DHT22;778;50.120;8.698;2022-08-02T07:11:36;26.40;99.90
1570;DHT22;778;50.120;8.698;2022-08-02T07:14:05;26.50;99.90
1570;DHT22;778;50.120;8.698;2022-08-02T07:16:33;26.60;99.90
1570;DHT22;778;50.120;8.698;2022-08-02T07:19:01;26.70;99.90
1570;DHT22;778;50.120;8.698;2022-08-02T07:21:30;26.70;99.90
1570;DHT22;778;50.120;8.698;2022-08-02T07:24:18;26.80;99.90
1570;DHT22;778;50.120;8.698;2022-08-02T07:26:48;27.40;99.90
1570;DHT22;778;50.120;8.698;2022-08-02T07:29:37;27.50;98.80
1570;DHT22;778;50.120;8.698;2022-08-02T07:32:13;27.00;99.10
1570;DHT22;778;50.120;8.698;2022-08-02T07:34:42;26.50;99.60
1570;DHT22;778;50.120;8.698;2022-08-02T07:37:20;26.10;99.90
1570;DHT22;778;50.120;8.698;2022-08-02T07:40:10;25.80;99.90
1570;DHT22;778;50.120;8.698;2022-08-02T07:42:43;25.50;99.90
1570;DHT22;778;50.120;8.698;2022-08-02T07:45:12;25.50;99.90
1570;DHT22;778;50.120;8.698;2022-08-02T07:47:42;25.90;99.90
1570;DHT22;778;50.120;8.698;2022-08-02T07:50:12;26.50;99.90
1570;DHT22;778;50.120;8.698;2022-08-02T07:52:43;26.90;99.90
1570;DHT22;778;50.120;8.698;2022-08-02T07:55:13;27.10;98.90
1570;DHT22;778;50.120;8.698;2022-08-02T07:57:44;27.70;97.50
1570;DHT22;778;50.120;8.698;2022-08-02T08:00:14;28.20;94.90
1570;DHT22;778;50.120;8.698;2022-08-02T08:02:44;28.30;93.10
1570;DHT22;778;50.120;8.698;2022-08-02T08:05:14;28.20;92.10
1570;DHT22;778;50.120;8.698;2022-08-02T08:07:42;28.40;90.70
1570;DHT22;778;50.120;8.698;2022-08-02T08:10:11;28.90;88.50
1570;DHT22;778;50.120;8.698;2022-08-02T08:12:39;29.20;83.90
1570;DHT22;778;50.120;8.698;2022-08-02T08:15:10;29.20;80.40
1570;DHT22;778;50.120;8.698;2022-08-02T08:17:38;28.60;78.80
1570;DHT22;778;50.120;8.698;2022-08-02T08:20:08;28.70;80.90
1570;DHT22;778;50.120;8.698;2022-08-02T08:22:41;28.60;80.50
1570;DHT22;778;50.120;8.698;2022-08-02T08:25:10;28.90;79.00
1570;DHT22;778;50.120;8.698;2022-08-02T08:27:47;29.00;76.70
1570;DHT22;778;50.120;8.698;2022-08-02T08:30:18;29.00;76.30
1570;DHT22;778;50.120;8.698;2022-08-02T08:32:48;28.40;77.50
1570;DHT22;778;50.120;8.698;2022-08-02T08:35:16;28.60;76.90
1570;DHT22;778;50.120;8.698;2022-08-02T08:37:45;28.80;76.30
1570;DHT22;778;50.120;8.698;2022-08-02T08:40:13;29.40;74.00
1570;DHT22;778;50.120;8.698;2022-08-02T08:42:45;29.60;71.70
1570;DHT22;778;50.120;8.698;2022-08-02T08:45:14;29.70;70.10
1570;DHT22;778;50.120;8.698;2022-08-02T08:47:50;29.90;69.00
1570;DHT22;778;50.120;8.698;2022-08-02T08:50:24;30.10;67.10
1570;DHT22;778;50.120;8.698;2022-08-02T08:53:00;30.40;65.90
1570;DHT22;778;50.120;8.698;2022-08-02T08:55:31;30.60;65.20
1570;DHT22;778;50.120;8.698;2022-08-02T08:58:02;31.00;63.50
1570;DHT22;778;50.120;8.698;2022-08-02T09:00:32;30.20;62.70
1570;DHT22;778;50.120;8.698;2022-08-02T09:03:05;29.30;64.50
1570;DHT22;778;50.120;8.698;2022-08-02T09:05:35;29.20;67.10
1570;DHT22;778;50.120;8.698;2022-08-02T09:08:05;29.30;66.80
1570;DHT22;778;50.120;8.698;2022-08-02T09:10:38;30.10;66.40
1570;DHT22;778;50.120;8.698;2022-08-02T09:13:10;30.70;64.10
1570;DHT22;778;50.120;8.698;2022-08-02T09:16:02;30.90;63.70
1570;DHT22;778;50.120;8.698;2022-08-02T09:18:42;31.20;61.30
1570;DHT22;778;50.120;8.698;2022-08-02T09:21:14;31.30;60.90
1570;DHT22;778;50.120;8.698;2022-08-02T09:23:44;31.40;59.40
1570;DHT22;778;50.120;8.698;2022-08-02T09:26:16;30.70;61.00
1570;DHT22;778;50.120;8.698;2022-08-02T09:28:46;30.90;60.10
1570;DHT22;778;50.120;8.698;2022-08-02T09:31:18;30.70;60.20
1570;DHT22;778;50.120;8.698;2022-08-02T09:33:52;30.90;60.10
1570;DHT22;778;50.120;8.698;2022-08-02T09:36:23;31.30;58.40
1570;DHT22;778;50.120;8.698;2022-08-02T09:38:54;31.60;58.00
1570;DHT22;778;50.120;8.698;2022-08-02T09:41:26;31.40;57.40
1570;DHT22;778;50.120;8.698;2022-08-02T09:43:56;30.90;57.90
1570;DHT22;778;50.120;8.698;2022-08-02T09:46:34;31.10;58.20
1570;DHT22;778;50.120;8.698;2022-08-02T09:49:08;31.40;57.40
1570;DHT22;778;50.120;8.698;2022-08-02T09:51:47;31.20;56.80
1570;DHT22;778;50.120;8.698;2022-08-02T09:54:17;31.40;57.60
1570;DHT22;778;50.120;8.698;2022-08-02T09:56:48;31.60;55.40
1570;DHT22;778;50.120;8.698;2022-08-02T09:59:19;31.30;55.60
1570;DHT22;778;50.120;8.698;2022-08-02T10:01:52;31.70;55.20
1570;DHT22;778;50.120;8.698;2022-08-02T10:04:31;32.00;54.80
1570;DHT22;778;50.120;8.698;2022-08-02T10:07:20;32.20;53.70
1570;DHT22;778;50.120;8.698;2022-08-02T10:09:49;32.10;55.80
1570;DHT22;778;50.120;8.698;2022-08-02T10:12:18;32.10;53.70
1570;DHT22;778;50.120;8.698;2022-08-02T10:14:49;32.00;52.40
1570;DHT22;778;50.120;8.698;2022-08-02T10:17:19;32.00;52.90
1570;DHT22;778;50.120;8.698;2022-08-02T10:19:49;32.00;52.40
1570;DHT22;778;50.120;8.698;2022-08-02T10:22:30;31.90;53.30
1570;DHT22;778;50.120;8.698;2022-08-02T10:25:02;31.70;52.30
1570;DHT22;778;50.120;8.698;2022-08-02T10:27:31;31.40;52.40
1570;DHT22;778;50.120;8.698;2022-08-02T10:30:22;31.60;56.30
1570;DHT22;778;50.120;8.698;2022-08-02T10:32:52;31.90;50.40
1570;DHT22;778;50.120;8.698;2022-08-02T10:35:24;32.00;52.10
1570;DHT22;778;50.120;8.698;2022-08-02T10:38:01;32.30;50.30
1570;DHT22;778;50.120;8.698;2022-08-02T10:40:47;31.70;49.70
1570;DHT22;778;50.120;8.698;2022-08-02T10:43:40;31.20;51.40
1570;DHT22;778;50.120;8.698;2022-08-02T10:46:29;31.60;52.50
1570;DHT22;778;50.120;8.698;2022-08-02T10:49:05;32.00;54.00
1570;DHT22;778;50.120;8.698;2022-08-02T10:52:07;31.70;53.10
1570;DHT22;778;50.120;8.698;2022-08-02T10:54:38;31.70;50.70
1570;DHT22;778;50.120;8.698;2022-08-02T10:57:19;30.90;50.00
1570;DHT22;778;50.120;8.698;2022-08-02T10:59:49;30.50;52.70
1570;DHT22;778;50.120;8.698;2022-08-02T11:02:39;30.50;54.80
1570;DHT22;778;50.120;8.698;2022-08-02T11:05:10;31.00;51.40
1570;DHT22;778;50.120;8.698;2022-08-02T11:07:44;31.50;52.10
1570;DHT22;778;50.120;8.698;2022-08-02T11:10:33;31.60;52.70
1570;DHT22;778;50.120;8.698;2022-08-02T11:13:06;31.90;50.20
1570;DHT22;778;50.120;8.698;2022-08-02T11:15:55;31.80;49.50
1570;DHT22;778;50.120;8.698;2022-08-02T11:19:01;31.80;50.30
1570;DHT22;778;50.120;8.698;2022-08-02T11:21:34;32.10;50.80
1570;DHT22;778;50.120;8.698;2022-08-02T11:24:29;32.20;49.80
1570;DHT22;778;50.120;8.698;2022-08-02T11:26:59;32.00;51.80
1570;DHT22;778;50.120;8.698;2022-08-02T11:29:37;31.70;50.00
1570;DHT22;778;50.120;8.698;2022-08-02T11:32:07;31.40;51.40
1570;DHT22;778;50.120;8.698;2022-08-02T11:34:38;31.40;52.00
1570;DHT22;778;50.120;8.698;2022-08-02T11:37:06;30.90;49.10
1570;DHT22;778;50.120;8.698;2022-08-02T11:39:36;30.70;50.50
1570;DHT22;778;50.120;8.698;2022-08-02T11:42:05;30.60;50.00
1570;DHT22;778;50.120;8.698;2022-08-02T11:44:39;30.80;51.40
1570;DHT22;778;50.120;8.698;2022-08-02T11:47:09;30.80;48.30
1570;DHT22;778;50.120;8.698;2022-08-02T11:49:38;30.90;52.40
1570;DHT22;778;50.120;8.698;2022-08-02T11:52:07;30.80;52.70
1570;DHT22;778;50.120;8.698;2022-08-02T11:54:40;30.50;50.50
1570;DHT22;778;50.120;8.698;2022-08-02T11:57:14;30.70;50.20
1570;DHT22;778;50.120;8.698;2022-08-02T11:59:49;30.80;52.40
1570;DHT22;778;50.120;8.698;2022-08-02T12:02:21;30.60;49.70
1570;DHT22;778;50.120;8.698;2022-08-02T12:04:52;30.40;49.50
1570;DHT22;778;50.120;8.698;2022-08-02T12:07:28;30.60;51.90
1570;DHT22;778;50.120;8.698;2022-08-02T12:10:05;30.30;55.00
1570;DHT22;778;50.120;8.698;2022-08-02T12:12:46;30.20;53.70
1570;DHT22;778;50.120;8.698;2022-08-02T12:15:29;29.90;50.50
1570;DHT22;778;50.120;8.698;2022-08-02T12:17:58;30.00;54.20
1570;DHT22;778;50.120;8.698;2022-08-02T12:20:45;30.20;52.00
1570;DHT22;778;50.120;8.698;2022-08-02T12:23:14;30.00;56.70
1570;DHT22;778;50.120;8.698;2022-08-02T12:25:44;30.00;55.60
1570;DHT22;778;50.120;8.698;2022-08-02T12:28:14;30.30;51.80
1570;DHT22;778;50.120;8.698;2022-08-02T12:30:51;30.40;56.50
1570;DHT22;778;50.120;8.698;2022-08-02T12:33:21;30.50;54.60
1570;DHT22;778;50.120;8.698;2022-08-02T12:35:51;30.50;50.90
1570;DHT22;778;50.120;8.698;2022-08-02T12:38:20;30.30;52.80
1570;DHT22;778;50.120;8.698;2022-08-02T12:40:50;30.20;52.80
1570;DHT22;778;50.120;8.698;2022-08-02T12:43:21;30.50;53.60
1570;DHT22;778;50.120;8.698;2022-08-02T12:45:52;30.40;56.10
1570;DHT22;778;50.120;8.698;2022-08-02T12:48:33;30.50;55.60
1570;DHT22;778;50.120;8.698;2022-08-02T12:51:22;30.20;56.60
1570;DHT22;778;50.120;8.698;2022-08-02T12:54:14;30.10;53.20
1570;DHT22;778;50.120;8.698;2022-08-02T12:56:46;30.20;54.70
1570;DHT22;778;50.120;8.698;2022-08-02T12:59:15;30.20;49.90
1570;DHT22;778;50.120;8.698;2022-08-02T13:01:44;30.20;51.30
1570;DHT22;778;50.120;8.698;2022-08-02T13:04:14;30.20;55.10
1570;DHT22;778;50.120;8.698;2022-08-02T13:06:42;30.20;52.80
1570;DHT22;778;50.120;8.698;2022-08-02T13:09:13;30.30;54.80
1570;DHT22;778;50.120;8.698;2022-08-02T13:11:44;30.20;50.50
1570;DHT22;778;50.120;8.698;2022-08-02T13:14:13;30.10;51.10
1570;DHT22;778;50.120;8.698;2022-08-02T13:16:43;30.10;51.00
1570;DHT22;778;50.120;8.698;2022-08-02T13:19:13;30.10;49.40
1570;DHT22;778;50.120;8.698;2022-08-02T13:21:43;30.10;50.90
1570;DHT22;778;50.120;8.698;2022-08-02T13:24:34;30.00;52.20
1570;DHT22;778;50.120;8.698;2022-08-02T13:27:22;30.00;53.20
1570;DHT22;778;50.120;8.698;2022-08-02T13:29:53;29.90;50.00
1570;DHT22;778;50.120;8.698;2022-08-02T13:32:24;30.10;54.20
1570;DHT22;778;50.120;8.698;2022-08-02T13:34:54;30.00;51.60
1570;DHT22;778;50.120;8.698;2022-08-02T13:37:23;30.00;50.70
1570;DHT22;778;50.120;8.698;2022-08-02T13:39:52;29.80;52.30
1570;DHT22;778;50.120;8.698;2022-08-02T13:42:42;30.00;48.90
1570;DHT22;778;50.120;8.698;2022-08-02T13:45:11;30.10;50.40
1570;DHT22;778;50.120;8.698;2022-08-02T13:47:41;29.90;51.30
1570;DHT22;778;50.120;8.698;2022-08-02T13:50:31;29.80;52.00
1570;DHT22;778;50.120;8.698;2022-08-02T13:52:59;29.60;54.40
1570;DHT22;778;50.120;8.698;2022-08-02T13:55:28;29.70;53.70
1570;DHT22;778;50.120;8.698;2022-08-02T13:57:58;29.60;53.80
1570;DHT22;778;50.120;8.698;2022-08-02T14:00:27;29.50;54.10
1570;DHT22;778;50.120;8.698;2022-08-02T14:03:03;29.40;54.80
1570;DHT22;778;50.120;8.698;2022-08-02T14:05:36;29.60;54.60
1570;DHT22;778;50.120;8.698;2022-08-02T14:08:15;29.60;53.30
1570;DHT22;778;50.120;8.698;2022-08-02T14:10:45;29.60;55.80
1570;DHT22;778;50.120;8.698;2022-08-02T14:13:15;29.60;54.10
1570;DHT22;778;50.120;8.698;2022-08-02T14:15:45;29.60;54.60
1570;DHT22;778;50.120;8.698;2022-08-02T14:18:13;29.60;52.20
1570;DHT22;778;50.120;8.698;2022-08-02T14:20:42;29.60;50.80
1570;DHT22;778;50.120;8.698;2022-08-02T14:23:11;29.60;49.00
1570;DHT22;778;50.120;8.698;2022-08-02T14:25:40;29.50;54.00
1570;DHT22;778;50.120;8.698;2022-08-02T14:28:08;29.80;51.90
1570;DHT22;778;50.120;8.698;2022-08-02T14:30:38;29.70;51.50
1570;DHT22;778;50.120;8.698;2022-08-02T14:33:06;29.60;52.20
1570;DHT22;778;50.120;8.698;2022-08-02T14:35:35;29.70;51.70
1570;DHT22;778;50.120;8.698;2022-08-02T14:38:03;29.80;51.00
1570;DHT22;778;50.120;8.698;2022-08-02T14:40:33;29.90;52.40
1570;DHT22;778;50.120;8.698;2022-08-02T14:43:02;29.80;49.70
1570;DHT22;778;50.120;8.698;2022-08-02T14:45:31;29.70;53.10
1570;DHT22;778;50.120;8.698;2022-08-02T14:48:09;29.70;53.70
1570;DHT22;778;50.120;8.698;2022-08-02T14:50:38;29.50;54.20
1570;DHT22;778;50.120;8.698;2022-08-02T14:53:06;29.40;53.60
1570;DHT22;778;50.120;8.698;2022-08-02T14:55:40;29.60;49.70
1570;DHT22;778;50.120;8.698;2022-08-02T14:58:09;29.60;48.70
1570;DHT22;778;50.120;8.698;2022-08-02T15:00:38;29.70;54.10
1570;DHT22;778;50.120;8.698;2022-08-02T15:03:12;29.40;53.30
1570;DHT22;778;50.120;8.698;2022-08-02T15:05:40;29.70;51.60
1570;DHT22;778;50.120;8.698;2022-08-02T15:08:09;29.70;50.90
1570;DHT22;778;50.120;8.698;2022-08-02T15:10:43;29.90;52.90
1570;DHT22;778;50.120;8.698;2022-08-02T15:13:15;29.70;54.10
1570;DHT22;778;50.120;8.698;2022-08-02T15:15:43;29.70;54.30
1570;DHT22;778;50.120;8.698;2022-08-02T15:18:13;29.70;54.60
1570;DHT22;778;50.120;8.698;2022-08-02T15:20:41;29.80;54.50
1570;DHT22;778;50.120;8.698;2022-08-02T15:23:24;29.60;54.60
1570;DHT22;778;50.120;8.698;2022-08-02T15:26:04;29.60;55.00
1570;DHT22;778;50.120;8.698;2022-08-02T15:28:34;29.70;52.20
1570;DHT22;778;50.120;8.698;2022-08-02T15:31:04;29.70;54.60
1570;DHT22;778;50.120;8.698;2022-08-02T15:33:34;29.80;53.40
1570;DHT22;778;50.120;8.698;2022-08-02T15:36:02;29.90;53.40
1570;DHT22;778;50.120;8.698;2022-08-02T15:38:31;30.00;53.00
1570;DHT22;778;50.120;8.698;2022-08-02T15:41:00;29.80;52.50
1570;DHT22;778;50.120;8.698;2022-08-02T15:43:30;29.70;51.40
1570;DHT22;778;50.120;8.698;2022-08-02T15:45:58;29.60;53.80
1570;DHT22;778;50.120;8.698;2022-08-02T15:48:27;29.70;50.60
1570;DHT22;778;50.120;8.698;2022-08-02T15:50:57;29.70;53.60
1570;DHT22;778;50.120;8.698;2022-08-02T15:53:25;29.70;51.80
1570;DHT22;778;50.120;8.698;2022-08-02T15:55:54;29.70;53.20
1570;DHT22;778;50.120;8.698;2022-08-02T15:58:33;29.80;52.30
1570;DHT22;778;50.120;8.698;2022-08-02T16:01:10;29.40;56.20
1570;DHT22;778;50.120;8.698;2022-08-02T16:03:39;29.40;56.60
1570;DHT22;778;50.120;8.698;2022-08-02T16:06:09;29.50;52.40
1570;DHT22;778;50.120;8.698;2022-08-02T16:08:38;29.60;54.50
1570;DHT22;778;50.120;8.698;2022-08-02T16:11:20;29.80;49.80
1570;DHT22;778;50.120;8.698;2022-08-02T16:13:49;29.80;49.60
1570;DHT22;778;50.120;8.698;2022-08-02T16:16:21;29.90;50.80
1570;DHT22;778;50.120;8.698;2022-08-02T16:18:50;29.80;49.70
1570;DHT22;778;50.120;8.698;2022-08-02T16:21:20;29.90;52.10
1570;DHT22;778;50.120;8.698;2022-08-02T16:23:51;29.70;53.90
1570;DHT22;778;50.120;8.698;2022-08-02T16:26:29;29.60;54.30
1570;DHT22;778;50.120;8.698;2022-08-02T16:28:59;29.40;55.70
1570;DHT22;778;50.120;8.698;2022-08-02T16:31:28;29.50;56.00
1570;DHT22;778;50.120;8.698;2022-08-02T16:33:57;29.40;54.40
1570;DHT22;778;50.120;8.698;2022-08-02T16:36:27;29.50;55.90
1570;DHT22;778;50.120;8.698;2022-08-02T16:38:57;29.50;54.50
1570;DHT22;778;50.120;8.698;2022-08-02T16:41:25;29.60;53.00
1570;DHT22;778;50.120;8.698;2022-08-02T16:44:13;29.50;52.20
1570;DHT22;778;50.120;8.698;2022-08-02T16:46:43;29.50;55.10
1570;DHT22;778;50.120;8.698;2022-08-02T16:49:12;29.50;51.70
1570;DHT22;778;50.120;8.698;2022-08-02T16:52:02;29.50;52.30
1570;DHT22;778;50.120;8.698;2022-08-02T16:54:31;29.50;52.80